Time;durP1;ratioP1;P1;durP2;ratioP2;P2;SDS_P1;SDS_P2;PMS_P1;PMS_P2;Temp;Humidity;BMP_temperature;BMP_pressure;BME280_temperature;BME280_humidity;BME280_pressure;Samples;Min_cycle;Max_cycle;Signal;HPM_P1;HPM_P2
2022/12/21 00:00:49;;;;;;;45.63;22.77;;;;;;;-1.98;100.00;99301.25;5051885;28;20453;-62
2022/12/21 00:03:33;;;;;;;44.80;21.77;;;;;;;-1.85;100.00;99306.28;5052369;28;20092;-61
2022/12/21 00:06:18;;;;;;;56.20;24.25;;;;;;;-1.89;100.00;99313.16;5029658;28;20041;-61
2022/12/21 00:09:06;;;;;;;64.35;26.27;;;;;;;-1.97;100.00;99314.94;5051514;28;20115;-62
2022/12/21 00:11:50;;;;;;;53.40;23.65;;;;;;;-1.95;100.00;99300.38;5052393;28;20057;-63
2022/12/21 00:14:35;;;;;;;51.75;23.75;;;;;;;-1.84;100.00;99292.56;5052197;28;20539;-61
2022/12/21 00:17:19;;;;;;;53.35;24.42;;;;;;;-1.84;100.00;99287.41;5051747;28;20401;-63
2022/12/21 00:20:06;;;;;;;47.97;22.27;;;;;;;-1.76;100.00;99301.06;5052205;28;20049;-61
2022/12/21 00:22:51;;;;;;;60.80;25.52;;;;;;;-1.70;100.00;99307.00;5040573;28;20144;-61
2022/12/21 00:25:36;;;;;;;58.47;24.95;;;;;;;-1.75;100.00;99310.44;5051552;28;20506;-62
2022/12/21 00:28:21;;;;;;;58.42;25.20;;;;;;;-1.79;100.00;99302.78;5051792;28;20053;-61
2022/12/21 00:31:10;;;;;;;81.15;25.13;;;;;;;-1.61;100.00;99292.34;5051973;28;20102;-63
2022/12/21 00:33:55;;;;;;;102.07;24.83;;;;;;;-1.98;100.00;99293.56;5051421;28;20048;-63
2022/12/21 00:36:40;;;;;;;43.03;22.23;;;;;;;-1.81;100.00;99292.53;5051419;28;20221;-61
2022/12/21 00:39:24;;;;;;;51.50;21.13;;;;;;;-1.96;100.00;99284.97;5046330;28;20057;-61
2022/12/21 00:42:09;;;;;;;50.75;24.55;;;;;;;-1.92;100.00;99279.78;5049382;28;20028;-61
2022/12/21 00:44:54;;;;;;;59.95;26.10;;;;;;;-2.09;100.00;99279.09;5049974;28;20086;-61
2022/12/21 00:47:39;;;;;;;57.08;26.50;;;;;;;-2.23;100.00;99288.63;5051792;28;20041;-61
2022/12/21 00:50:23;;;;;;;50.30;25.05;;;;;;;-2.18;100.00;99288.56;5036831;28;20045;-61
2022/12/21 00:53:11;;;;;;;58.25;26.50;;;;;;;-2.26;100.00;99280.06;5050380;28;20528;-61
2022/12/21 00:55:58;;;;;;;54.63;25.25;;;;;;;-2.15;100.00;99279.97;5049956;28;20472;-62
2022/12/21 00:58:43;;;;;;;59.30;27.70;;;;;;;-2.20;100.00;99280.03;5050752;28;20503;-61
2022/12/21 01:01:30;;;;;;;59.28;26.80;;;;;;;-2.14;100.00;99274.81;5041667;28;20458;-61
2022/12/21 01:04:15;;;;;;;55.72;26.85;;;;;;;-2.11;100.00;99274.84;5036314;28;20053;-61
2022/12/21 01:07:00;;;;;;;48.80;26.25;;;;;;;-2.05;100.00;99265.34;5050929;28;20072;-61
2022/12/21 01:09:45;;;;;;;56.50;27.45;;;;;;;-2.08;100.00;99267.94;5049704;28;20052;-61
2022/12/21 01:12:29;;;;;;;50.33;27.45;;;;;;;-2.13;100.00;99268.84;5049647;28;20068;-61
2022/12/21 01:15:14;;;;;;;55.80;28.27;;;;;;;-2.20;100.00;99277.44;5050811;28;20041;-61
2022/12/21 01:17:59;;;;;;;52.97;25.70;;;;;;;-2.12;100.00;99280.81;5050907;28;20045;-62
2022/12/21 01:20:45;;;;;;;48.92;26.13;;;;;;;-2.05;100.00;99270.47;5050752;28;20048;-61
2022/12/21 01:23:30;;;;;;;48.55;25.52;;;;;;;-2.00;100.00;99272.16;5050012;28;20514;-62
2022/12/21 01:26:15;;;;;;;48.70;25.33;;;;;;;-2.02;100.00;99262.75;5048488;28;20164;-62
2022/12/21 01:29:00;;;;;;;54.25;27.65;;;;;;;-2.08;100.00;99255.09;5050671;28;20041;-62
2022/12/21 01:31:45;;;;;;;48.55;26.23;;;;;;;-2.07;100.00;99247.38;5030575;28;20481;-63
2022/12/21 01:34:29;;;;;;;51.65;26.92;;;;;;;-2.07;100.00;99249.13;5049992;28;20048;-62
2022/12/21 01:37:14;;;;;;;57.63;28.33;;;;;;;-2.09;100.00;99238.00;5051215;28;20070;-62
2022/12/21 01:39:59;;;;;;;54.47;26.95;;;;;;;-2.06;100.00;99245.69;5045937;28;20048;-62
2022/12/21 01:42:44;;;;;;;52.42;26.90;;;;;;;-1.96;100.00;99238.75;5050328;28;20049;-62
2022/12/21 01:45:31;;;;;;;50.80;27.83;;;;;;;-2.08;100.00;99239.69;5043624;28;20416;-63
2022/12/21 01:48:19;;;;;;;49.92;26.20;;;;;;;-2.12;100.00;99236.28;5048834;28;20045;-63
2022/12/21 01:51:05;;;;;;;61.50;25.85;;;;;;;-2.11;100.00;99238.03;5045334;28;20045;-63
2022/12/21 01:54:01;;;;;;;54.40;28.13;;;;;;;-2.14;100.00;99235.47;5050060;28;20124;-62
2022/12/21 01:56:48;;;;;;;51.83;24.67;;;;;;;-2.01;100.00;99234.47;5042941;28;20099;-62
2022/12/21 01:59:37;;;;;;;58.17;29.10;;;;;;;-2.07;100.00;99228.56;5043502;28;20045;-61
2022/12/21 02:02:35;;;;;;;57.15;27.40;;;;;;;-2.03;100.00;99241.38;5045321;28;20438;-61
2022/12/21 02:05:46;;;;;;;55.90;27.48;;;;;;;-2.00;100.00;99241.34;5049288;28;20056;-62
2022/12/21 02:08:34;;;;;;;54.05;27.50;;;;;;;-2.00;100.00;99245.63;5061777;28;20048;-62
2022/12/21 02:11:20;;;;;;;49.22;26.23;;;;;;;-1.98;100.00;99249.91;5048721;28;20123;-62
2022/12/21 02:14:10;;;;;;;54.70;27.05;;;;;;;-1.97;100.00;99253.28;5048545;28;20126;-62
2022/12/21 02:17:14;;;;;;;54.08;27.15;;;;;;;-1.88;100.00;99267.78;5050126;28;20049;-62
2022/12/21 02:20:22;;;;;;;52.10;27.08;;;;;;;-1.82;100.00;99267.72;5026148;28;20079;-62
2022/12/21 02:23:22;;;;;;;50.28;25.15;;;;;;;-1.74;100.00;99270.19;5049730;28;20095;-62
2022/12/21 02:26:26;;;;;;;48.45;24.88;;;;;;;-1.76;100.00;99259.94;5048421;28;20049;-62
2022/12/21 02:29:48;;;;;;;53.45;26.52;;;;;;;-1.72;100.00;99260.78;5022493;28;20120;-62
2022/12/21 02:32:46;;;;;;;50.65;25.20;;;;;;;-1.66;100.00;99254.69;5021727;28;20420;-62
2022/12/21 02:35:42;;;;;;;52.97;27.38;;;;;;;-1.68;100.00;99259.03;5076056;28;20037;-62
2022/12/21 02:39:01;;;;;;;61.70;27.20;;;;;;;-1.76;100.00;99248.81;5045677;28;20053;-63
2022/12/21 02:41:58;;;;;;;48.95;24.58;;;;;;;-1.82;100.00;99241.16;5037972;28;20041;-62
2022/12/21 02:44:55;;;;;;;50.25;24.98;;;;;;;-1.77;100.00;99244.53;5049924;28;20060;-62
2022/12/21 02:47:50;;;;;;;48.30;24.63;;;;;;;-1.64;100.00;99258.97;5049567;28;20405;-62
2022/12/21 02:50:39;;;;;;;45.60;24.80;;;;;;;-1.57;100.00;99267.47;5048470;28;20044;-62
2022/12/21 02:53:32;;;;;;;44.50;23.52;;;;;;;-1.45;100.00;99258.75;5036726;28;20098;-62
2022/12/21 02:56:19;;;;;;;52.22;24.48;;;;;;;-1.57;100.00;99235.78;5048003;28;20488;-62
2022/12/21 02:59:07;;;;;;;49.47;24.65;;;;;;;-1.73;100.00;99207.69;5047326;28;20049;-62
2022/12/21 03:02:14;;;;;;;44.88;23.25;;;;;;;-1.70;100.00;99205.09;5040291;28;20041;-62
2022/12/21 03:05:34;;;;;;;46.80;23.38;;;;;;;-1.66;100.00;99217.00;5042256;28;20049;-62
2022/12/21 03:08:42;;;;;;;49.90;25.45;;;;;;;-1.74;100.00;99229.94;5049537;28;20041;-62
2022/12/21 03:11:41;;;;;;;52.15;25.95;;;;;;;-1.74;100.00;99209.41;5041540;28;20127;-62
2022/12/21 03:14:39;;;;;;;54.10;24.73;;;;;;;-1.89;100.00;99214.69;5050803;28;20447;-62
2022/12/21 03:18:05;;;;;;;48.58;24.52;;;;;;;-1.76;100.00;99230.81;5048740;28;20041;-62
2022/12/21 03:20:59;;;;;;;50.50;26.25;;;;;;;-1.64;100.00;99230.72;5051180;28;20088;-62
2022/12/21 03:24:01;;;;;;;53.35;25.00;;;;;;;-1.52;100.00;99227.13;5052810;28;20049;-62
2022/12/21 03:26:45;;;;;;;52.03;25.60;;;;;;;-1.61;100.00;99224.66;5052516;28;20128;-61
2022/12/21 03:29:37;;;;;;;62.50;26.85;;;;;;;-1.75;100.00;99219.69;5051989;28;20390;-62
2022/12/21 03:32:33;;;;;;;60.13;28.55;;;;;;;-1.74;100.00;99223.94;5042619;28;20179;-62
2022/12/21 03:35:41;;;;;;;60.17;27.98;;;;;;;-1.82;100.00;99225.75;5052746;28;20052;-62
2022/12/21 03:38:31;;;;;;;58.90;27.45;;;;;;;-1.63;100.00;99231.53;5052401;28;20571;-62
2022/12/21 03:41:24;;;;;;;51.85;25.77;;;;;;;-1.49;100.00;99244.25;5046725;28;20480;-61
2022/12/21 03:44:12;;;;;;;48.33;25.63;;;;;;;-1.37;100.00;99244.09;5044372;28;20049;-62
2022/12/21 03:47:02;;;;;;;53.83;26.98;;;;;;;-1.41;100.00;99254.44;5044744;28;20454;-62
2022/12/21 03:50:00;;;;;;;60.50;28.95;;;;;;;-1.45;100.00;99245.06;5042525;28;20087;-61
2022/12/21 03:53:04;;;;;;;59.17;28.70;;;;;;;-1.63;100.00;99229.81;5044159;28;20045;-62
2022/12/21 03:55:51;;;;;;;48.55;25.25;;;;;;;-1.40;100.00;99233.84;5052382;28;20068;-61
2022/12/21 03:58:36;;;;;;;58.75;27.02;;;;;;;-1.53;100.00;99227.16;5052224;28;20071;-61
2022/12/21 04:01:53;;;;;;;55.53;27.05;;;;;;;-1.70;100.00;99214.50;5050051;28;20052;-62
2022/12/21 04:05:04;;;;;;;59.33;28.17;;;;;;;-1.57;100.00;99222.91;5024828;28;20452;-62
2022/12/21 04:07:50;;;;;;;57.35;27.17;;;;;;;-1.65;100.00;99213.56;5011177;28;20050;-63
2022/12/21 04:10:36;;;;;;;56.45;27.63;;;;;;;-1.61;100.00;99196.41;5024346;28;20578;-62
2022/12/21 04:13:20;;;;;;;56.55;27.42;;;;;;;-1.68;100.00;99187.91;5025389;28;20054;-63
2022/12/21 04:16:06;;;;;;;55.60;26.92;;;;;;;-1.63;100.00;99191.28;5024083;28;20042;-62
2022/12/21 04:21:53;;;;;;;51.80;25.50;;;;;;;-1.64;100.00;99184.44;5025142;28;20057;-61
2022/12/21 04:30:45;;;;;;;62.72;28.17;;;;;;;-1.50;100.00;99194.56;5026166;28;20076;-60
2022/12/21 04:33:30;;;;;;;54.40;25.27;;;;;;;-0.97;100.00;99195.59;5014192;28;20080;-62
2022/12/21 04:39:17;;;;;;;57.50;24.58;;;;;;;-1.28;100.00;99185.72;5034056;28;20053;-62
2022/12/21 04:42:02;;;;;;;50.80;24.48;;;;;;;-1.41;100.00;99190.16;5051186;28;20079;-62
2022/12/21 04:44:47;;;;;;;48.55;23.60;;;;;;;-1.28;100.00;99196.00;5050870;28;20459;-62
2022/12/21 04:47:31;;;;;;;53.67;25.50;;;;;;;-1.30;100.00;99185.75;5050441;28;20048;-52
2022/12/21 04:50:16;;;;;;;62.50;26.20;;;;;;;-1.22;100.00;99190.78;5050091;28;20402;-63
2022/12/21 04:53:01;;;;;;;59.72;26.38;;;;;;;-1.48;100.00;99181.69;5042228;28;20059;-64
2022/12/21 04:55:46;;;;;;;50.47;24.75;;;;;;;-1.51;100.00;99172.28;5047238;28;20064;-63
2022/12/21 04:58:31;;;;;;;66.47;25.77;;;;;;;-1.46;100.00;99176.53;5051234;28;20055;-64
2022/12/21 05:01:19;;;;;;;61.08;27.60;;;;;;;-1.51;100.00;99189.44;5044220;28;20049;-63
2022/12/21 05:04:05;;;;;;;48.10;23.98;;;;;;;-1.37;100.00;99192.69;5051084;28;20037;-64
2022/12/21 05:06:50;;;;;;;47.28;25.60;;;;;;;-1.29;100.00;99192.56;5048520;28;20496;-63
2022/12/21 05:09:35;;;;;;;54.20;26.60;;;;;;;-1.32;100.00;99191.78;5045254;28;20416;-62
2022/12/21 05:12:20;;;;;;;49.67;25.55;;;;;;;-1.30;100.00;99192.59;5049759;28;20071;-62
2022/12/21 05:15:05;;;;;;;52.47;26.48;;;;;;;-1.54;100.00;99194.63;5051084;28;20047;-62
2022/12/21 05:17:49;;;;;;;56.55;27.40;;;;;;;-1.49;100.00;99180.84;5038991;28;20049;-63
2022/12/21 05:20:34;;;;;;;58.33;29.13;;;;;;;-1.57;100.00;99179.22;5049431;28;20186;-64
2022/12/21 05:23:19;;;;;;;58.45;27.13;;;;;;;-1.61;100.00;99163.84;5035626;28;20601;-63
2022/12/21 05:26:05;;;;;;;57.08;27.23;;;;;;;-1.38;100.00;99154.13;5050682;28;20119;-63
2022/12/21 05:28:50;;;;;;;52.80;26.83;;;;;;;-1.31;100.00;99152.34;5050673;28;20120;-64
2022/12/21 05:31:34;;;;;;;52.55;26.10;;;;;;;-1.39;100.00;99153.28;5050229;28;20064;-64
2022/12/21 05:34:19;;;;;;;58.78;28.27;;;;;;;-1.50;100.00;99148.28;5050275;28;20040;-63
2022/12/21 05:37:03;;;;;;;54.45;26.25;;;;;;;-1.28;100.00;99153.16;5050218;28;20052;-64
2022/12/21 05:39:48;;;;;;;54.33;27.00;;;;;;;-1.34;100.00;99160.94;5038899;28;20056;-63
2022/12/21 05:42:33;;;;;;;60.00;29.48;;;;;;;-1.35;100.00;99159.22;5050696;28;20049;-65
2022/12/21 05:45:17;;;;;;;63.95;28.40;;;;;;;-1.63;100.00;99159.56;5049417;28;20055;-63
2022/12/21 05:48:02;;;;;;;54.78;26.13;;;;;;;-1.77;100.00;99150.34;5050385;28;20041;-63
2022/12/21 05:50:46;;;;;;;57.38;28.35;;;;;;;-1.73;100.00;99140.88;5050114;28;20044;-63
2022/12/21 05:53:31;;;;;;;68.65;28.50;;;;;;;-1.85;100.00;99136.72;5050069;28;20060;-63
2022/12/21 05:56:15;;;;;;;56.38;27.00;;;;;;;-1.81;100.00;99143.50;5049413;28;20094;-62
2022/12/21 05:59:00;;;;;;;57.67;27.45;;;;;;;-1.74;100.00;99155.44;5045609;28;20048;-63
2022/12/21 06:01:45;;;;;;;60.38;27.10;;;;;;;-1.58;100.00;99164.69;5050336;28;20144;-62
2022/12/21 06:04:30;;;;;;;59.05;28.02;;;;;;;-1.74;100.00;99163.16;5050493;28;20045;-64
2022/12/21 06:07:15;;;;;;;56.83;27.15;;;;;;;-1.46;100.00;99169.66;5038179;28;20082;-64
2022/12/21 06:09:59;;;;;;;57.60;27.02;;;;;;;-1.24;100.00;99174.53;5048614;28;20059;-63
2022/12/21 06:12:44;;;;;;;57.28;25.75;;;;;;;-1.39;100.00;99188.44;5048973;28;20123;-63
2022/12/21 06:15:29;;;;;;;55.45;27.10;;;;;;;-1.45;100.00;99193.66;5049748;28;20056;-63
2022/12/21 06:18:14;;;;;;;54.13;26.52;;;;;;;-1.40;100.00;99195.28;5048870;28;20124;-63
2022/12/21 06:21:00;;;;;;;57.47;27.67;;;;;;;-1.38;100.00;99195.28;5041313;28;20056;-62
2022/12/21 06:23:46;;;;;;;54.70;27.80;;;;;;;-1.25;100.00;99198.53;5041368;28;20094;-62
2022/12/21 06:26:30;;;;;;;56.15;26.65;;;;;;;-1.17;100.00;99198.44;5049743;28;20064;-62
2022/12/21 06:29:15;;;;;;;57.63;27.40;;;;;;;-1.14;100.00;99204.38;5049354;28;20527;-59
2022/12/21 06:32:00;;;;;;;49.13;26.10;;;;;;;-1.02;100.00;99194.81;5048724;28;20037;-64
2022/12/21 06:34:45;;;;;;;55.42;27.00;;;;;;;-0.95;100.00;99211.00;5048419;28;20045;-62
2022/12/21 06:37:29;;;;;;;65.13;30.92;;;;;;;-1.05;100.00;99215.44;5049340;28;20480;-63
2022/12/21 06:40:14;;;;;;;55.67;28.23;;;;;;;-0.96;100.00;99220.44;5047998;28;20048;-62
2022/12/21 06:42:59;;;;;;;55.40;27.27;;;;;;;-0.92;100.00;99219.53;5047926;28;20056;-64
2022/12/21 06:45:43;;;;;;;59.13;26.85;;;;;;;-0.77;100.00;99218.44;5049566;28;20434;-63
2022/12/21 06:48:30;;;;;;;55.33;27.15;;;;;;;-0.81;100.00;99223.66;5047960;28;20041;-64
2022/12/21 06:51:22;;;;;;;57.95;28.67;;;;;;;-0.95;100.00;99211.88;5049254;28;20053;-64
2022/12/21 06:54:10;;;;;;;55.42;26.67;;;;;;;-1.14;100.00;99201.81;5048807;28;20506;-64
2022/12/21 06:56:55;;;;;;;53.17;27.08;;;;;;;-0.86;100.00;99216.00;5048439;28;20119;-64
2022/12/21 06:59:39;;;;;;;55.05;27.15;;;;;;;-0.71;100.00;99220.09;5046922;28;20122;-65
2022/12/21 07:02:25;;;;;;;60.67;29.45;;;;;;;-0.89;100.00;99209.19;5048834;28;20033;-63
2022/12/21 07:05:10;;;;;;;59.75;28.40;;;;;;;-1.13;100.00;99197.53;5043160;28;20099;-63
2022/12/21 07:07:55;;;;;;;53.78;26.95;;;;;;;-1.27;100.00;99200.25;5041610;28;20881;-64
2022/12/21 07:10:40;;;;;;;62.78;30.10;;;;;;;-1.22;100.00;99195.91;5047541;28;20049;-64
2022/12/21 07:13:26;;;;;;;56.05;26.40;;;;;;;-1.21;100.00;99187.34;5048807;28;20492;-63
2022/12/21 07:16:12;;;;;;;59.25;28.38;;;;;;;-1.22;100.00;99179.66;5037158;28;20430;-63
2022/12/21 07:18:57;;;;;;;57.70;28.67;;;;;;;-1.17;100.00;99181.28;5048809;28;20056;-62
2022/12/21 07:21:42;;;;;;;50.13;24.15;;;;;;;-0.75;100.00;99192.69;5048339;28;20071;-63
2022/12/21 07:24:27;;;;;;;48.53;25.08;;;;;;;-0.48;100.00;99185.41;5043727;28;20317;-63
2022/12/21 07:27:12;;;;;;;54.22;26.88;;;;;;;-0.80;100.00;99181.63;5046650;28;20066;-64
2022/12/21 07:29:57;;;;;;;56.15;28.38;;;;;;;-0.80;100.00;99189.34;5049718;28;20072;-64
2022/12/21 07:32:41;;;;;;;52.97;25.75;;;;;;;-0.72;100.00;99189.22;5046302;28;20400;-64
2022/12/21 07:35:26;;;;;;;56.63;28.02;;;;;;;-0.95;100.00;99187.84;5047039;28;20385;-64
2022/12/21 07:38:11;;;;;;;51.95;26.20;;;;;;;-1.11;100.00;99177.78;5037435;28;20510;-65
2022/12/21 07:41:00;;;;;;;55.00;26.38;;;;;;;-1.04;100.00;99187.09;5047152;28;20049;-64
2022/12/21 07:43:46;;;;;;;53.83;28.45;;;;;;;-1.05;100.00;99194.84;5044687;28;20056;-65
2022/12/21 07:46:33;;;;;;;48.63;23.90;;;;;;;-0.92;100.00;99200.66;5048122;28;20041;-65
2022/12/21 07:49:19;;;;;;;58.63;26.77;;;;;;;-0.98;100.00;99191.34;5044136;28;20072;-67
2022/12/21 07:52:04;;;;;;;50.50;26.08;;;;;;;-0.99;100.00;99192.19;5047515;28;20045;-65
2022/12/21 07:54:49;;;;;;;55.80;27.38;;;;;;;-1.13;100.00;99180.34;5051303;28;20111;-62
2022/12/21 07:57:33;;;;;;;59.20;29.38;;;;;;;-1.19;100.00;99182.19;5051279;28;20059;-64
2022/12/21 08:00:22;;;;;;;54.55;26.45;;;;;;;-1.12;100.00;99184.66;5049634;28;20045;-66
2022/12/21 08:03:08;;;;;;;60.35;27.92;;;;;;;-1.17;100.00;99176.13;5051425;28;20128;-64
2022/12/21 08:05:53;;;;;;;62.38;28.25;;;;;;;-1.14;100.00;99165.81;5044599;28;20476;-63
2022/12/21 08:08:39;;;;;;;64.32;30.05;;;;;;;-1.14;100.00;99164.94;5050207;28;20430;-63
2022/12/21 08:11:23;;;;;;;56.95;28.13;;;;;;;-1.19;100.00;99165.00;5048824;28;20051;-64
2022/12/21 08:14:08;;;;;;;59.10;27.80;;;;;;;-1.24;100.00;99164.25;5050366;28;20146;-65
2022/12/21 08:16:52;;;;;;;53.10;27.08;;;;;;;-1.17;100.00;99162.41;5049262;28;20103;-64
2022/12/21 08:19:37;;;;;;;59.70;29.55;;;;;;;-1.18;100.00;99165.88;5048602;28;20045;-65
2022/12/21 08:22:23;;;;;;;58.38;27.40;;;;;;;-1.12;100.00;99169.22;5041135;28;20184;-64
2022/12/21 08:25:08;;;;;;;50.53;26.45;;;;;;;-0.95;100.00;99175.00;5051345;28;20040;-65
2022/12/21 08:27:54;;;;;;;57.25;28.00;;;;;;;-0.85;100.00;99176.56;5047451;28;20512;-65
2022/12/21 08:30:39;;;;;;;59.78;27.50;;;;;;;-0.95;100.00;99177.56;5051845;28;20051;-65
2022/12/21 08:33:23;;;;;;;60.08;28.27;;;;;;;-0.95;100.00;99167.28;5038978;28;20043;-65
2022/12/21 08:36:10;;;;;;;57.22;28.58;;;;;;;-1.06;100.00;99167.44;5050035;28;20048;-65
2022/12/21 08:38:55;;;;;;;56.17;28.17;;;;;;;-1.12;100.00;99164.06;5049992;28;20062;-65
2022/12/21 08:41:40;;;;;;;56.47;27.42;;;;;;;-1.15;100.00;99158.13;5045710;28;20076;-65
2022/12/21 08:44:25;;;;;;;64.15;29.27;;;;;;;-1.09;100.00;99165.75;5049834;28;20071;-64
2022/12/21 08:47:10;;;;;;;57.50;28.02;;;;;;;-0.87;100.00;99168.00;5035932;28;20037;-66
2022/12/21 08:49:54;;;;;;;53.75;27.10;;;;;;;-0.78;100.00;99169.56;5050160;28;20045;-67
2022/12/21 08:52:39;;;;;;;58.08;28.25;;;;;;;-0.78;100.00;99162.72;5045623;28;20450;-65
2022/12/21 08:55:24;;;;;;;55.65;28.23;;;;;;;-0.85;100.00;99165.41;5050180;28;20626;-65
2022/12/21 08:58:10;;;;;;;58.15;28.10;;;;;;;-0.81;100.00;99169.63;5050849;28;20091;-64
2022/12/21 09:00:55;;;;;;;57.03;28.23;;;;;;;-0.66;100.00;99174.53;5047666;28;20049;-65
2022/12/21 09:03:40;;;;;;;59.15;29.08;;;;;;;-0.90;100.00;99179.19;5061969;28;20033;-65
2022/12/21 09:06:25;;;;;;;51.40;26.45;;;;;;;-0.81;100.00;99185.06;5050458;28;20049;-65
2022/12/21 09:09:09;;;;;;;57.28;26.83;;;;;;;-0.39;100.00;99181.81;5074300;28;20045;-64
2022/12/21 09:11:54;;;;;;;60.47;27.67;;;;;;;-0.58;100.00;99181.28;5048449;28;20183;-64
2022/12/21 09:14:39;;;;;;;60.60;28.65;;;;;;;-0.54;100.00;99172.66;5040322;28;20045;-64
2022/12/21 09:17:24;;;;;;;53.20;27.35;;;;;;;-0.74;100.00;99173.81;5049625;28;20067;-64
2022/12/21 09:20:09;;;;;;;49.53;23.02;;;;;;;-0.57;100.00;99167.56;5050161;28;20139;-65
2022/12/21 09:22:53;;;;;;;60.47;29.55;;;;;;;-0.52;100.00;99169.16;5047154;28;20068;-65
2022/12/21 09:25:39;;;;;;;61.08;28.95;;;;;;;-0.68;100.00;99167.72;5049370;28;20048;-64
2022/12/21 09:28:24;;;;;;;63.50;29.85;;;;;;;-0.85;100.00;99152.53;5049282;28;20071;-63
2022/12/21 09:31:15;;;;;;;62.80;28.25;;;;;;;-1.14;100.00;99145.22;5043898;28;20043;-64
2022/12/21 09:33:59;;;;;;;62.83;30.25;;;;;;;-1.18;100.00;99143.59;5048803;28;20045;-65
2022/12/21 09:36:44;;;;;;;61.25;29.20;;;;;;;-1.01;100.00;99130.47;5050263;28;20675;-65
2022/12/21 09:39:29;;;;;;;56.33;27.30;;;;;;;-0.90;100.00;99144.91;5046565;28;20052;-64
2022/12/21 09:42:39;;;;;;;56.22;27.83;;;;;;;-0.91;100.00;99136.31;5049048;28;20057;-64
2022/12/21 09:45:34;;;;;;;60.45;28.23;;;;;;;-0.66;100.00;99143.66;5047910;28;20083;-63
2022/12/21 09:48:24;;;;;;;59.50;28.75;;;;;;;-0.88;100.00;99140.56;5047914;28;20496;-63
2022/12/21 09:51:24;;;;;;;58.50;28.95;;;;;;;-0.90;100.00;99145.72;5049695;28;20083;-63
2022/12/21 09:54:15;;;;;;;69.50;29.77;;;;;;;-1.01;100.00;99148.47;5046486;28;20059;-64
2022/12/21 09:57:00;;;;;;;65.15;30.10;;;;;;;-0.80;100.00;99148.19;5050047;28;20056;-64
2022/12/21 09:59:45;;;;;;;62.85;29.05;;;;;;;-0.86;100.00;99141.41;5048470;28;20065;-63
2022/12/21 10:02:58;;;;;;;57.13;28.75;;;;;;;-0.71;100.00;99140.31;5049730;28;20053;-64
2022/12/21 10:05:48;;;;;;;58.10;27.77;;;;;;;-0.60;100.00;99134.97;5058403;28;20056;-64
2022/12/21 10:08:32;;;;;;;62.38;29.42;;;;;;;-0.55;100.00;99134.91;5046663;28;20095;-64
2022/12/21 10:11:17;;;;;;;70.05;30.58;;;;;;;-0.46;100.00;99133.91;5032677;28;20110;-63
2022/12/21 10:14:23;;;;;;;63.80;27.10;;;;;;;-0.46;100.00;99137.34;5041147;28;20065;-64
2022/12/21 10:17:23;;;;;;;58.10;26.08;;;;;;;0.07;100.00;99131.22;5012043;28;20500;-65
2022/12/21 10:20:29;;;;;;;60.15;27.35;;;;;;;0.19;100.00;99126.69;5023518;28;20534;-66
2022/12/21 10:23:32;;;;;;;53.30;27.08;;;;;;;0.40;100.00;99119.38;5025191;28;20120;-67
2022/12/21 10:26:21;;;;;;;61.53;26.30;;;;;;;0.91;100.00;99122.59;5026357;28;20038;-65
2022/12/21 10:29:16;;;;;;;62.10;26.75;;;;;;;0.95;100.00;99126.78;5027242;28;20128;-67
2022/12/21 10:32:01;;;;;;;55.88;26.17;;;;;;;0.94;100.00;99127.69;5014377;28;20124;-66
2022/12/21 10:34:50;;;;;;;54.13;27.05;;;;;;;0.92;100.00;99119.13;5021149;28;20059;-67
2022/12/21 10:37:34;;;;;;;53.13;24.13;;;;;;;3.53;100.00;99114.41;5027178;28;20158;-63
2022/12/21 10:40:24;;;;;;;63.33;29.90;;;;;;;1.53;100.00;99117.66;5012893;28;20128;-65
2022/12/21 10:43:11;;;;;;;66.10;29.88;;;;;;;0.45;100.00;99107.25;5021552;28;20065;-63
2022/12/21 10:45:56;;;;;;;60.95;30.42;;;;;;;1.03;100.00;99108.56;5026503;28;20061;-64
2022/12/21 10:48:41;;;;;;;66.07;31.48;;;;;;;0.78;100.00;99111.69;5025691;28;20132;-62
2022/12/21 10:51:33;;;;;;;72.45;31.60;;;;;;;0.22;100.00;99104.28;5026007;28;20103;-64
2022/12/21 10:54:28;;;;;;;63.17;29.27;;;;;;;0.55;100.00;99098.44;5040712;28;20045;-61
2022/12/21 10:57:13;;;;;;;60.42;29.25;;;;;;;3.65;100.00;99089.81;5048799;28;20068;-63
2022/12/21 11:00:24;;;;;;;57.55;26.85;;;;;;;3.09;100.00;99084.75;5048812;28;20048;-58
2022/12/21 11:03:36;;;;;;;55.65;25.05;;;;;;;2.83;100.00;99086.44;5040694;28;20070;-62
2022/12/21 11:06:20;;;;;;;63.80;27.83;;;;;;;2.14;100.00;99070.34;5048199;28;20064;-61
2022/12/21 11:09:35;;;;;;;52.88;26.58;;;;;;;2.13;100.00;99066.09;5047922;28;20120;-61
2022/12/21 11:12:22;;;;;;;49.72;23.67;;;;;;;1.91;100.00;99071.03;5047523;28;20037;-61
2022/12/21 11:15:10;;;;;;;52.10;25.13;;;;;;;2.00;100.00;99073.34;5048451;28;20408;-63
2022/12/21 11:17:55;;;;;;;49.28;23.77;;;;;;;2.44;100.00;99067.78;5047230;28;20082;-62
2022/12/21 11:20:40;;;;;;;53.20;24.55;;;;;;;2.63;100.00;99053.44;5046358;28;20064;-61
2022/12/21 11:23:24;;;;;;;50.33;23.55;;;;;;;3.04;100.00;99043.47;5047439;28;20136;-61
2022/12/21 11:26:15;;;;;;;53.72;25.92;;;;;;;4.67;100.00;99056.69;5048144;28;20045;-55
2022/12/21 11:29:13;;;;;;;50.50;25.65;;;;;;;5.29;100.00;99048.13;5049717;28;20127;-58
2022/12/21 11:32:05;;;;;;;57.85;26.92;;;;;;;2.70;100.00;99052.34;5046528;28;20147;-58
2022/12/21 11:34:54;;;;;;;61.80;28.65;;;;;;;2.17;100.00;99046.19;5052615;28;20492;-58
2022/12/21 11:37:45;;;;;;;48.13;23.48;;;;;;;4.26;100.00;99043.56;5049290;28;20436;-49
2022/12/21 11:40:30;;;;;;;47.63;23.88;;;;;;;5.78;100.00;99033.06;5051291;28;20037;-63
2022/12/21 11:43:15;;;;;;;45.25;22.33;;;;;;;5.83;100.00;99031.13;5053049;28;20090;-63
2022/12/21 11:46:10;;;;;;;45.50;22.30;;;;;;;4.66;100.00;99048.97;5049888;28;20052;-57
2022/12/21 11:49:16;;;;;;;57.40;25.63;;;;;;;3.49;100.00;99040.28;5050268;28;20442;-58
2022/12/21 11:52:01;;;;;;;58.13;26.45;;;;;;;2.08;100.00;99037.78;5034972;28;20575;-59
2022/12/21 11:54:58;;;;;;;52.63;24.58;;;;;;;2.63;100.00;99030.16;5051995;28;20465;-59
2022/12/21 11:58:01;;;;;;;71.72;29.88;;;;;;;2.40;100.00;99042.88;5044138;28;20053;-64
2022/12/21 12:01:07;;;;;;;63.97;29.23;;;;;;;1.20;100.00;99022.97;5055254;28;20788;-64
2022/12/21 12:04:15;;;;;;;59.80;26.00;;;;;;;0.96;100.00;99013.22;5041993;28;20168;-64
2022/12/21 12:07:07;;;;;;;62.20;27.70;;;;;;;0.76;100.00;99013.72;5051685;28;20049;-64
2022/12/21 12:10:19;;;;;;;62.95;28.05;;;;;;;0.50;100.00;99012.59;5050596;28;20128;-64
2022/12/21 12:13:19;;;;;;;63.92;29.75;;;;;;;0.91;100.00;99014.22;5050974;28;20496;-62
2022/12/21 12:16:12;;;;;;;60.70;28.27;;;;;;;0.58;100.00;99018.44;5049582;28;20048;-63
2022/12/21 12:19:16;;;;;;;60.40;29.27;;;;;;;0.53;100.00;99032.31;5051480;28;20094;-63
2022/12/21 12:22:09;;;;;;;52.03;25.40;;;;;;;0.69;100.00;99043.97;5050923;28;20055;-64
2022/12/21 12:25:02;;;;;;;59.85;27.98;;;;;;;0.83;100.00;99041.03;5036481;28;20040;-62
2022/12/21 12:28:35;;;;;;;63.05;28.88;;;;;;;0.89;100.00;99054.69;5051315;28;20123;-63
2022/12/21 12:31:20;;;;;;;64.85;30.13;;;;;;;0.89;100.00;99052.09;5029109;28;20073;-63
2022/12/21 12:34:17;;;;;;;61.03;27.52;;;;;;;0.79;100.00;99065.22;5010149;28;20053;-63
2022/12/21 12:37:12;;;;;;;56.63;28.13;;;;;;;0.60;100.00;99049.34;5029249;28;20050;-63
2022/12/21 12:40:22;;;;;;;62.33;27.85;;;;;;;0.73;100.00;99062.81;5018347;28;20058;-64
2022/12/21 12:43:19;;;;;;;58.33;26.80;;;;;;;0.72;100.00;99054.22;5029464;28;20098;-63
2022/12/21 12:46:03;;;;;;;69.43;31.95;;;;;;;0.58;100.00;99045.94;5028566;28;20046;-63
2022/12/21 12:48:56;;;;;;;57.97;27.42;;;;;;;0.40;100.00;99052.34;5020063;28;20060;-64
2022/12/21 12:51:49;;;;;;;63.75;28.77;;;;;;;0.42;100.00;99055.75;5029076;28;20055;-64
2022/12/21 12:54:59;;;;;;;64.90;28.80;;;;;;;0.37;100.00;99061.03;5009629;28;20571;-63
2022/12/21 12:57:52;;;;;;;66.88;28.30;;;;;;;0.18;100.00;99068.31;5027126;28;20048;-63
2022/12/21 13:01:07;;;;;;;68.38;30.10;;;;;;;-0.18;100.00;99062.13;5026319;28;20088;-63
2022/12/21 13:04:10;;;;;;;75.80;30.05;;;;;;;-0.28;100.00;99050.31;5007085;28;20065;-62
2022/12/21 13:07:18;;;;;;;79.80;29.67;;;;;;;-0.23;100.00;99071.69;5012929;28;20053;-62